createdAt,value
2022-11-09T00:05:16.038Z,81.84
2022-11-09T00:10:47.809Z,81.87
2022-11-09T00:21:51.856Z,82.83
2022-11-09T00:27:23.440Z,83.28
2022-11-09T00:32:55.241Z,83.08
2022-11-09T00:44:00.634Z,83.08
2022-11-09T00:49:34.998Z,82.78
2022-11-09T00:55:12.628Z,83.12
2022-11-09T01:00:44.172Z,83.07
2022-11-09T01:06:16.058Z,83.08
2022-11-09T01:22:51.260Z,83.67
2022-11-09T01:28:22.971Z,83.70
2022-11-09T01:39:26.579Z,84.52
2022-11-09T01:45:05.287Z,83.81
2022-11-09T01:50:42.836Z,83.83
2022-11-09T01:56:14.624Z,83.81
2022-11-09T02:01:48.125Z,83.62
2022-11-09T02:07:19.829Z,83.96
2022-11-09T02:12:57.251Z,84.11
2022-11-09T02:18:35.348Z,83.75
2022-11-09T02:24:13.225Z,83.69
2022-11-09T02:29:50.955Z,83.96
2022-11-09T02:35:22.785Z,84.66
2022-11-09T02:40:54.563Z,84.81
2022-11-09T02:46:26.436Z,85.16
2022-11-09T02:52:04.112Z,84.59
2022-11-09T02:57:35.674Z,84.60
2022-11-09T03:03:07.442Z,84.47
2022-11-09T03:08:39.238Z,84.40
2022-11-09T03:14:11.072Z,84.40
2022-11-09T03:19:42.848Z,84.28
2022-11-09T03:25:14.617Z,84.42
2022-11-09T03:30:46.816Z,84.43
2022-11-09T03:36:18.845Z,84.42
2022-11-09T03:41:50.532Z,84.31
2022-11-09T03:47:22.618Z,84.78
2022-11-09T03:53:00.368Z,84.83
2022-11-09T03:58:38.242Z,84.58
2022-11-09T04:04:10.333Z,84.59
2022-11-09T04:09:47.894Z,84.40
2022-11-09T04:15:19.824Z,84.93
2022-11-09T04:20:51.815Z,85.95
2022-11-09T04:26:24.024Z,85.87
2022-11-09T04:31:56.063Z,85.38
2022-11-09T04:37:33.821Z,84.92
2022-11-09T04:43:05.572Z,86.32
2022-11-09T04:48:37.457Z,86.71
2022-11-09T04:54:09.263Z,86.49
2022-11-09T04:59:46.951Z,85.87
2022-11-09T05:05:24.576Z,85.81
2022-11-09T05:10:58.417Z,85.65
2022-11-09T05:16:36.363Z,85.72
2022-11-09T05:22:08.299Z,85.84
2022-11-09T05:27:40.111Z,86.70
2022-11-09T05:33:11.624Z,85.77
2022-11-09T05:38:43.416Z,85.93
2022-11-09T05:44:21.142Z,82.89
2022-11-09T05:49:59.014Z,84.31
2022-11-09T05:55:36.719Z,84.86
2022-11-09T06:01:14.116Z,85.22
2022-11-09T06:06:51.627Z,85.94
2022-11-09T06:12:23.772Z,85.89
2022-11-09T06:18:01.101Z,85.43
2022-11-09T06:23:32.842Z,85.14
2022-11-09T06:29:04.344Z,85.46
2022-11-09T06:34:36.047Z,85.97
2022-11-09T06:40:07.679Z,85.93
2022-11-09T06:45:39.513Z,86.40
2022-11-09T06:51:17.185Z,86.04
2022-11-09T06:56:48.907Z,84.24
2022-11-09T07:02:20.786Z,81.39
2022-11-09T07:07:52.662Z,79.93
2022-11-09T07:10:16.232Z,78.87
2022-11-09T07:15:53.564Z,78.54
2022-11-09T07:21:31.561Z,77.93
2022-11-09T07:27:09.086Z,78.01
2022-11-09T07:33:07.354Z,78.16
2022-11-09T07:38:12.555Z,78.22
2022-11-09T07:43:46.567Z,78.15
2022-11-09T07:49:18.334Z,77.83
2022-11-09T07:54:52.333Z,77.40
2022-11-09T08:00:23.756Z,77.52
2022-11-09T08:05:54.130Z,77.10
2022-11-09T08:11:25.570Z,76.69
2022-11-09T08:16:57.926Z,76.52
2022-11-09T08:22:29.798Z,76.00
2022-11-09T08:28:01.398Z,75.60
2022-11-09T08:33:33.239Z,75.42
2022-11-09T08:39:05.554Z,74.75
2022-11-09T08:44:37.418Z,74.56
2022-11-09T08:50:09.332Z,74.88
2022-11-09T08:55:43.792Z,73.97
2022-11-09T09:01:16.892Z,73.00
2022-11-09T09:06:45.344Z,72.33
2022-11-09T09:12:16.886Z,72.18
2022-11-09T09:17:49.360Z,71.53
2022-11-09T09:23:22.005Z,70.94
2022-11-09T09:28:53.852Z,70.15
2022-11-09T09:34:25.705Z,69.20
2022-11-09T09:39:58.038Z,70.56
2022-11-09T09:45:30.050Z,68.01
2022-11-09T09:51:02.211Z,70.27
2022-11-09T09:56:34.148Z,66.20
2022-11-09T10:02:06.492Z,66.13
2022-11-09T10:07:38.723Z,64.50
2022-11-09T10:13:10.715Z,62.92
2022-11-09T10:18:42.994Z,64.23
2022-11-09T10:24:15.152Z,63.52
2022-11-09T10:35:17.363Z,65.34
2022-11-09T10:40:49.782Z,60.57
2022-11-09T10:46:21.800Z,59.57
2022-11-09T10:51:54.124Z,59.25
2022-11-09T10:57:26.541Z,59.83
2022-11-09T11:02:58.666Z,59.74
2022-11-09T11:08:30.957Z,58.28
2022-11-09T11:14:02.913Z,61.69
2022-11-09T11:19:35.256Z,58.32
2022-11-09T11:30:37.037Z,57.92
2022-11-09T11:41:38.706Z,58.42
2022-11-09T11:47:10.614Z,58.18
2022-11-09T11:52:42.949Z,58.36
2022-11-09T11:58:15.093Z,59.24
2022-11-09T12:03:50.575Z,59.08
2022-11-09T12:09:19.636Z,60.17
2022-11-09T12:14:51.761Z,58.96
2022-11-09T12:20:23.625Z,60.20
2022-11-09T12:25:55.822Z,60.39
2022-11-09T12:31:28.410Z,60.54
2022-11-09T12:37:00.409Z,61.13
2022-11-09T12:42:32.834Z,59.83
2022-11-09T12:48:05.151Z,61.28
2022-11-09T12:53:37.484Z,62.10
2022-11-09T12:59:09.598Z,62.32
2022-11-09T13:04:41.460Z,63.55
2022-11-09T13:10:13.550Z,63.69
2022-11-09T13:15:45.220Z,63.89
2022-11-09T13:21:17.400Z,63.45
2022-11-09T13:26:49.718Z,63.95
2022-11-09T13:32:21.923Z,63.73
2022-11-09T13:37:53.626Z,63.69
2022-11-09T13:43:25.764Z,63.99
2022-11-09T13:48:57.893Z,64.72
2022-11-09T13:54:29.756Z,65.03
2022-11-09T14:00:01.752Z,64.92
2022-11-09T14:05:33.615Z,64.96
2022-11-09T14:11:05.737Z,65.11
2022-11-09T14:16:37.713Z,64.69
2022-11-09T14:22:09.972Z,65.09
2022-11-09T14:27:41.889Z,65.16
2022-11-09T14:33:13.859Z,65.44
2022-11-09T14:38:46.014Z,65.56
2022-11-09T14:44:18.321Z,65.35
2022-11-09T14:49:51.091Z,66.06
2022-11-09T14:55:23.473Z,66.22
2022-11-09T15:00:55.744Z,66.36
2022-11-09T15:06:27.600Z,66.34
2022-11-09T15:11:59.406Z,66.92
2022-11-09T15:17:31.405Z,66.77
2022-11-09T15:23:03.415Z,67.49
2022-11-09T15:28:35.402Z,68.00
2022-11-09T15:34:07.208Z,68.22
2022-11-09T15:39:38.736Z,69.36
2022-11-09T15:45:10.892Z,69.97
2022-11-09T15:50:42.909Z,71.05
2022-11-09T15:56:15.256Z,71.53
2022-11-09T16:01:47.094Z,72.36
2022-11-09T16:07:19.227Z,73.00
2022-11-09T16:12:51.444Z,72.08
2022-11-09T16:18:26.107Z,71.96
2022-11-09T16:23:58.661Z,73.56
2022-11-09T16:40:27.851Z,73.96
2022-11-09T16:46:00.037Z,74.04
2022-11-09T16:51:32.241Z,75.03
2022-11-09T16:57:04.407Z,75.80
2022-11-09T17:02:36.608Z,74.51
2022-11-09T17:08:08.788Z,74.61
2022-11-09T17:13:40.697Z,74.99
2022-11-09T17:19:12.774Z,76.36
2022-11-09T17:24:45.171Z,77.60
2022-11-09T17:30:18.042Z,77.71
2022-11-09T17:35:50.176Z,79.33
2022-11-09T17:41:22.214Z,79.99
2022-11-09T17:46:54.327Z,81.30
2022-11-09T17:52:26.705Z,81.76
2022-11-09T17:57:58.938Z,80.67
2022-11-09T18:03:31.338Z,81.27
2022-11-09T18:09:39.153Z,81.40
2022-11-09T18:14:35.274Z,82.44
2022-11-09T18:20:06.749Z,81.12
2022-11-09T18:25:38.732Z,81.00
2022-11-09T18:31:10.582Z,83.12
2022-11-09T18:36:42.337Z,83.20
2022-11-09T18:42:14.229Z,85.01
2022-11-09T18:47:46.385Z,84.38
2022-11-09T18:53:18.448Z,85.27
2022-11-09T18:58:50.439Z,84.96
2022-11-09T19:04:22.249Z,86.17
2022-11-09T19:09:56.675Z,86.32
2022-11-09T19:20:55.880Z,86.99
2022-11-09T19:26:28.218Z,87.82
2022-11-09T19:32:00.678Z,87.42
2022-11-09T19:37:32.931Z,87.58
2022-11-09T19:43:04.953Z,87.62
2022-11-09T19:48:36.757Z,87.47
2022-11-09T19:54:09.236Z,87.14
2022-11-09T19:59:41.349Z,87.88
2022-11-09T20:05:13.997Z,87.20
2022-11-09T20:10:45.819Z,87.88
2022-11-09T20:16:17.825Z,87.99
2022-11-09T20:21:51.352Z,87.80
2022-11-09T20:24:02.936Z,88.19
2022-11-09T20:29:34.768Z,87.71
2022-11-09T20:35:06.376Z,89.02
2022-11-09T20:40:38.534Z,88.92
2022-11-09T20:46:10.545Z,88.86
2022-11-09T20:51:42.732Z,88.60
2022-11-09T20:57:15.334Z,88.90
2022-11-09T21:02:46.815Z,89.00
2022-11-09T21:08:19.023Z,90.50
2022-11-09T21:13:50.693Z,90.15
2022-11-09T21:19:22.517Z,90.48
2022-11-09T21:24:54.212Z,90.31
2022-11-09T21:30:26.087Z,90.92
2022-11-09T21:35:58.295Z,91.18
2022-11-09T21:41:29.896Z,90.92
2022-11-09T21:47:01.954Z,91.22
2022-11-09T21:52:33.777Z,91.25
2022-11-09T21:58:05.799Z,90.99
2022-11-09T22:03:37.787Z,92.00
2022-11-09T22:09:09.285Z,91.17
2022-11-09T22:14:41.192Z,91.10
2022-11-09T22:20:12.764Z,91.65
2022-11-09T22:25:47.947Z,92.37
2022-11-09T22:31:16.507Z,92.28
2022-11-09T22:36:48.115Z,91.90
2022-11-09T22:42:20.371Z,91.88
2022-11-09T22:47:52.418Z,91.69
2022-11-09T22:53:24.366Z,91.75
2022-11-09T22:58:56.668Z,91.46
2022-11-09T23:04:28.884Z,92.05
2022-11-09T23:10:00.724Z,91.58
2022-11-09T23:15:33.400Z,91.77
2022-11-09T23:21:05.437Z,91.76
2022-11-09T23:26:37.155Z,91.79
2022-11-09T23:32:08.831Z,91.49
2022-11-09T23:37:40.521Z,91.31
2022-11-09T23:43:12.411Z,91.56
2022-11-09T23:48:44.057Z,91.74
2022-11-09T23:54:15.845Z,92.01
2022-11-09T23:59:47.548Z,91.85
